sensor_id;sensor_type;location;lat;lon;timestamp;temperature;humidity
3866;DHT22;1948;53.250;10.412;2023-12-20T00:02:00;7.60;99.90
3866;DHT22;1948;53.250;10.412;2023-12-20T00:04:29;7.60;99.90
3866;DHT22;1948;53.250;10.412;2023-12-20T00:06:56;7.60;99.90
3866;DHT22;1948;53.250;10.412;2023-12-20T00:09:25;7.60;99.90
3866;DHT22;1948;53.250;10.412;2023-12-20T00:11:54;7.50;99.90
3866;DHT22;1948;53.250;10.412;2023-12-20T00:14:24;7.50;99.90
3866;DHT22;1948;53.250;10.412;2023-12-20T00:16:51;7.50;99.90
3866;DHT22;1948;53.250;10.412;2023-12-20T00:19:18;7.50;99.90
3866;DHT22;1948;53.250;10.412;2023-12-20T00:21:45;7.50;99.90
3866;DHT22;1948;53.250;10.412;2023-12-20T00:24:17;7.40;99.90
3866;DHT22;1948;53.250;10.412;2023-12-20T00:26:52;7.40;99.90
3866;DHT22;1948;53.250;10.412;2023-12-20T00:29:19;7.40;99.90
3866;DHT22;1948;53.250;10.412;2023-12-20T00:31:46;7.40;99.90
3866;DHT22;1948;53.250;10.412;2023-12-20T00:34:16;7.40;99.90
3866;DHT22;1948;53.250;10.412;2023-12-20T00:36:45;7.40;99.90
3866;DHT22;1948;53.250;10.412;2023-12-20T00:39:12;7.40;99.90
3866;DHT22;1948;53.250;10.412;2023-12-20T00:41:42;7.30;99.90
3866;DHT22;1948;53.250;10.412;2023-12-20T00:44:09;7.30;99.90
3866;DHT22;1948;53.250;10.412;2023-12-20T00:46:39;7.30;99.90
3866;DHT22;1948;53.250;10.412;2023-12-20T00:49:09;7.20;99.90
3866;DHT22;1948;53.250;10.412;2023-12-20T00:51:41;7.20;99.90
3866;DHT22;1948;53.250;10.412;2023-12-20T00:54:11;7.20;99.90
3866;DHT22;1948;53.250;10.412;2023-12-20T00:56:42;7.10;99.90
3866;DHT22;1948;53.250;10.412;2023-12-20T00:59:09;7.20;99.90
3866;DHT22;1948;53.250;10.412;2023-12-20T01:01:37;7.10;99.90
3866;DHT22;1948;53.250;10.412;2023-12-20T01:04:10;7.10;99.90
3866;DHT22;1948;53.250;10.412;2023-12-20T01:06:37;7.10;99.90
3866;DHT22;1948;53.250;10.412;2023-12-20T01:09:04;7.10;99.90
3866;DHT22;1948;53.250;10.412;2023-12-20T01:11:31;7.00;99.90
3866;DHT22;1948;53.250;10.412;2023-12-20T01:14:03;6.90;99.90
3866;DHT22;1948;53.250;10.412;2023-12-20T01:16:30;6.90;99.90
3866;DHT22;1948;53.250;10.412;2023-12-20T01:18:57;6.80;99.90
3866;DHT22;1948;53.250;10.412;2023-12-20T01:21:24;6.90;99.90
3866;DHT22;1948;53.250;10.412;2023-12-20T01:23:51;6.90;99.90
3866;DHT22;1948;53.250;10.412;2023-12-20T01:26:18;7.00;99.90
3866;DHT22;1948;53.250;10.412;2023-12-20T01:28:48;6.90;99.90
3866;DHT22;1948;53.250;10.412;2023-12-20T01:31:15;6.90;99.90
3866;DHT22;1948;53.250;10.412;2023-12-20T01:33:44;6.90;99.90
3866;DHT22;1948;53.250;10.412;2023-12-20T01:36:12;6.90;99.90
3866;DHT22;1948;53.250;10.412;2023-12-20T01:38:40;6.90;99.90
3866;DHT22;1948;53.250;10.412;2023-12-20T01:41:11;6.90;99.90
3866;DHT22;1948;53.250;10.412;2023-12-20T01:43:39;6.90;99.90
3866;DHT22;1948;53.250;10.412;2023-12-20T01:46:19;6.90;99.90
3866;DHT22;1948;53.250;10.412;2023-12-20T01:48:58;6.90;99.90
3866;DHT22;1948;53.250;10.412;2023-12-20T01:51:27;6.80;99.90
3866;DHT22;1948;53.250;10.412;2023-12-20T01:54:00;6.90;99.90
3866;DHT22;1948;53.250;10.412;2023-12-20T01:56:29;6.90;99.90
3866;DHT22;1948;53.250;10.412;2023-12-20T01:59:02;6.90;99.90
3866;DHT22;1948;53.250;10.412;2023-12-20T02:01:32;6.90;99.90
3866;DHT22;1948;53.250;10.412;2023-12-20T02:04:02;6.80;99.90
3866;DHT22;1948;53.250;10.412;2023-12-20T02:06:34;6.70;99.90
3866;DHT22;1948;53.250;10.412;2023-12-20T02:09:05;6.60;99.90
3866;DHT22;1948;53.250;10.412;2023-12-20T02:11:37;6.70;99.90
3866;DHT22;1948;53.250;10.412;2023-12-20T02:14:06;6.70;99.90
3866;DHT22;1948;53.250;10.412;2023-12-20T02:16:34;6.60;99.90
3866;DHT22;1948;53.250;10.412;2023-12-20T02:19:08;6.50;99.90
3866;DHT22;1948;53.250;10.412;2023-12-20T02:21:44;6.50;99.90
3866;DHT22;1948;53.250;10.412;2023-12-20T02:24:20;6.50;99.90
3866;DHT22;1948;53.250;10.412;2023-12-20T02:26:48;6.50;99.90
3866;DHT22;1948;53.250;10.412;2023-12-20T02:29:16;6.40;99.90
3866;DHT22;1948;53.250;10.412;2023-12-20T02:31:50;6.40;99.90
3866;DHT22;1948;53.250;10.412;2023-12-20T02:34:21;6.40;99.90
3866;DHT22;1948;53.250;10.412;2023-12-20T02:36:50;6.40;99.90
3866;DHT22;1948;53.250;10.412;2023-12-20T02:39:20;6.40;99.90
3866;DHT22;1948;53.250;10.412;2023-12-20T02:41:52;6.40;99.90
3866;DHT22;1948;53.250;10.412;2023-12-20T02:44:21;6.40;99.90
3866;DHT22;1948;53.250;10.412;2023-12-20T02:46:50;6.50;99.90
3866;DHT22;1948;53.250;10.412;2023-12-20T02:49:20;6.40;99.90
3866;DHT22;1948;53.250;10.412;2023-12-20T02:51:49;6.50;99.90
3866;DHT22;1948;53.250;10.412;2023-12-20T02:54:18;6.40;99.90
3866;DHT22;1948;53.250;10.412;2023-12-20T02:56:50;6.40;99.90
3866;DHT22;1948;53.250;10.412;2023-12-20T02:59:19;6.30;99.90
3866;DHT22;1948;53.250;10.412;2023-12-20T03:01:49;6.40;99.90
3866;DHT22;1948;53.250;10.412;2023-12-20T03:04:20;6.40;99.90
3866;DHT22;1948;53.250;10.412;2023-12-20T03:06:49;6.30;99.90
3866;DHT22;1948;53.250;10.412;2023-12-20T03:09:17;6.40;99.90
3866;DHT22;1948;53.250;10.412;2023-12-20T03:11:50;6.30;99.90
3866;DHT22;1948;53.250;10.412;2023-12-20T03:14:26;6.30;99.90
3866;DHT22;1948;53.250;10.412;2023-12-20T03:16:57;6.30;99.90
3866;DHT22;1948;53.250;10.412;2023-12-20T03:19:29;6.30;99.90
3866;DHT22;1948;53.250;10.412;2023-12-20T03:22:00;6.30;99.90
3866;DHT22;1948;53.250;10.412;2023-12-20T03:24:33;6.30;99.90
3866;DHT22;1948;53.250;10.412;2023-12-20T03:27:07;6.30;99.90
3866;DHT22;1948;53.250;10.412;2023-12-20T03:29:35;6.30;99.90
3866;DHT22;1948;53.250;10.412;2023-12-20T03:32:03;6.30;99.90
3866;DHT22;1948;53.250;10.412;2023-12-20T03:34:34;6.30;99.90
3866;DHT22;1948;53.250;10.412;2023-12-20T03:37:05;6.30;99.90
3866;DHT22;1948;53.250;10.412;2023-12-20T03:39:35;6.20;99.90
3866;DHT22;1948;53.250;10.412;2023-12-20T03:42:03;6.10;99.90
3866;DHT22;1948;53.250;10.412;2023-12-20T03:44:40;6.10;99.90
3866;DHT22;1948;53.250;10.412;2023-12-20T03:47:10;6.20;99.90
3866;DHT22;1948;53.250;10.412;2023-12-20T03:49:39;6.20;99.90
3866;DHT22;1948;53.250;10.412;2023-12-20T03:52:07;6.20;99.90
3866;DHT22;1948;53.250;10.412;2023-12-20T03:54:43;6.20;99.90
3866;DHT22;1948;53.250;10.412;2023-12-20T03:57:10;6.20;99.90
3866;DHT22;1948;53.250;10.412;2023-12-20T03:59:40;6.30;99.90
3866;DHT22;1948;53.250;10.412;2023-12-20T04:02:20;6.30;99.90
3866;DHT22;1948;53.250;10.412;2023-12-20T04:04:52;6.30;99.90
3866;DHT22;1948;53.250;10.412;2023-12-20T04:07:22;6.30;99.90
3866;DHT22;1948;53.250;10.412;2023-12-20T04:09:51;6.30;99.90
3866;DHT22;1948;53.250;10.412;2023-12-20T04:12:19;6.30;99.90
3866;DHT22;1948;53.250;10.412;2023-12-20T04:14:48;6.40;99.90
3866;DHT22;1948;53.250;10.412;2023-12-20T04:17:26;6.50;99.90
3866;DHT22;1948;53.250;10.412;2023-12-20T04:19:56;6.50;99.90
3866;DHT22;1948;53.250;10.412;2023-12-20T04:22:23;6.50;99.90
3866;DHT22;1948;53.250;10.412;2023-12-20T04:24:51;6.50;99.90
3866;DHT22;1948;53.250;10.412;2023-12-20T04:27:19;6.50;99.90
3866;DHT22;1948;53.250;10.412;2023-12-20T04:29:47;6.50;99.90
3866;DHT22;1948;53.250;10.412;2023-12-20T04:32:20;6.50;99.90
3866;DHT22;1948;53.250;10.412;2023-12-20T04:34:50;6.60;99.90
3866;DHT22;1948;53.250;10.412;2023-12-20T04:37:20;6.50;99.90
3866;DHT22;1948;53.250;10.412;2023-12-20T04:39:51;6.60;99.90
3866;DHT22;1948;53.250;10.412;2023-12-20T04:42:22;6.60;99.90
3866;DHT22;1948;53.250;10.412;2023-12-20T04:44:56;6.60;99.90
3866;DHT22;1948;53.250;10.412;2023-12-20T04:47:28;6.70;99.90
3866;DHT22;1948;53.250;10.412;2023-12-20T04:49:55;6.70;99.90
3866;DHT22;1948;53.250;10.412;2023-12-20T04:52:25;6.70;99.90
3866;DHT22;1948;53.250;10.412;2023-12-20T04:54:52;6.60;99.90
3866;DHT22;1948;53.250;10.412;2023-12-20T04:57:20;6.70;99.90
3866;DHT22;1948;53.250;10.412;2023-12-20T04:59:47;6.60;99.90
3866;DHT22;1948;53.250;10.412;2023-12-20T05:02:14;6.60;99.90
3866;DHT22;1948;53.250;10.412;2023-12-20T05:04:41;6.60;99.90
3866;DHT22;1948;53.250;10.412;2023-12-20T05:07:08;6.60;99.90
3866;DHT22;1948;53.250;10.412;2023-12-20T05:09:35;6.60;99.90
3866;DHT22;1948;53.250;10.412;2023-12-20T05:12:06;6.60;99.90
3866;DHT22;1948;53.250;10.412;2023-12-20T05:14:33;6.60;99.90
3866;DHT22;1948;53.250;10.412;2023-12-20T05:17:01;6.60;99.90
3866;DHT22;1948;53.250;10.412;2023-12-20T05:19:28;6.70;99.90
3866;DHT22;1948;53.250;10.412;2023-12-20T05:21:55;6.70;99.90
3866;DHT22;1948;53.250;10.412;2023-12-20T05:24:22;6.70;99.90
3866;DHT22;1948;53.250;10.412;2023-12-20T05:26:54;6.70;99.90
3866;DHT22;1948;53.250;10.412;2023-12-20T05:29:21;6.80;99.90
3866;DHT22;1948;53.250;10.412;2023-12-20T05:31:49;6.70;99.90
3866;DHT22;1948;53.250;10.412;2023-12-20T05:34:16;6.80;99.90
3866;DHT22;1948;53.250;10.412;2023-12-20T05:36:43;6.80;99.90
3866;DHT22;1948;53.250;10.412;2023-12-20T05:39:11;6.80;99.90
3866;DHT22;1948;53.250;10.412;2023-12-20T05:41:38;6.80;99.90
3866;DHT22;1948;53.250;10.412;2023-12-20T05:44:08;6.80;99.90
3866;DHT22;1948;53.250;10.412;2023-12-20T05:46:39;6.90;99.90
3866;DHT22;1948;53.250;10.412;2023-12-20T05:49:10;6.80;99.90
3866;DHT22;1948;53.250;10.412;2023-12-20T05:51:37;6.80;99.90
3866;DHT22;1948;53.250;10.412;2023-12-20T05:54:07;6.80;99.90
3866;DHT22;1948;53.250;10.412;2023-12-20T05:56:38;6.80;99.90
3866;DHT22;1948;53.250;10.412;2023-12-20T05:59:05;6.80;99.90
3866;DHT22;1948;53.250;10.412;2023-12-20T06:01:34;6.80;99.90
3866;DHT22;1948;53.250;10.412;2023-12-20T06:04:04;6.80;99.90
3866;DHT22;1948;53.250;10.412;2023-12-20T06:06:31;6.80;99.90
3866;DHT22;1948;53.250;10.412;2023-12-20T06:09:02;6.80;99.90
3866;DHT22;1948;53.250;10.412;2023-12-20T06:11:29;6.90;99.90
3866;DHT22;1948;53.250;10.412;2023-12-20T06:14:00;6.90;99.90
3866;DHT22;1948;53.250;10.412;2023-12-20T06:16:29;6.90;99.90
3866;DHT22;1948;53.250;10.412;2023-12-20T06:18:59;7.00;99.90
3866;DHT22;1948;53.250;10.412;2023-12-20T06:21:26;6.90;99.90
3866;DHT22;1948;53.250;10.412;2023-12-20T06:23:53;7.00;99.90
3866;DHT22;1948;53.250;10.412;2023-12-20T06:26:20;7.00;99.90
3866;DHT22;1948;53.250;10.412;2023-12-20T06:28:47;7.00;99.90
3866;DHT22;1948;53.250;10.412;2023-12-20T06:31:14;7.00;99.90
3866;DHT22;1948;53.250;10.412;2023-12-20T06:33:43;7.00;99.90
3866;DHT22;1948;53.250;10.412;2023-12-20T06:36:13;6.90;99.90
3866;DHT22;1948;53.250;10.412;2023-12-20T06:38:43;6.90;99.90
3866;DHT22;1948;53.250;10.412;2023-12-20T06:41:13;6.90;99.90
3866;DHT22;1948;53.250;10.412;2023-12-20T06:43:43;7.00;99.90
3866;DHT22;1948;53.250;10.412;2023-12-20T06:46:18;7.00;99.90
3866;DHT22;1948;53.250;10.412;2023-12-20T06:48:46;7.00;99.90
3866;DHT22;1948;53.250;10.412;2023-12-20T06:51:15;7.00;99.90
3866;DHT22;1948;53.250;10.412;2023-12-20T06:53:47;7.00;99.90
3866;DHT22;1948;53.250;10.412;2023-12-20T06:56:14;7.00;99.90
3866;DHT22;1948;53.250;10.412;2023-12-20T06:58:46;7.00;99.90
3866;DHT22;1948;53.250;10.412;2023-12-20T07:01:15;7.00;99.90
3866;DHT22;1948;53.250;10.412;2023-12-20T07:03:45;6.90;99.90
3866;DHT22;1948;53.250;10.412;2023-12-20T07:06:12;7.00;99.90
3866;DHT22;1948;53.250;10.412;2023-12-20T07:08:43;7.00;99.90
3866;DHT22;1948;53.250;10.412;2023-12-20T07:11:10;6.90;99.90
3866;DHT22;1948;53.250;10.412;2023-12-20T07:13:37;6.90;99.90
3866;DHT22;1948;53.250;10.412;2023-12-20T07:16:05;6.90;99.90
3866;DHT22;1948;53.250;10.412;2023-12-20T07:18:32;7.00;99.90
3866;DHT22;1948;53.250;10.412;2023-12-20T07:21:00;7.00;99.90
3866;DHT22;1948;53.250;10.412;2023-12-20T07:23:30;7.00;99.90
3866;DHT22;1948;53.250;10.412;2023-12-20T07:25:59;7.00;99.90
3866;DHT22;1948;53.250;10.412;2023-12-20T07:28:28;7.00;99.90
3866;DHT22;1948;53.250;10.412;2023-12-20T07:30:55;7.00;99.90
3866;DHT22;1948;53.250;10.412;2023-12-20T07:33:25;7.00;99.90
3866;DHT22;1948;53.250;10.412;2023-12-20T07:35:54;7.10;99.90
3866;DHT22;1948;53.250;10.412;2023-12-20T07:38:21;7.10;99.90
3866;DHT22;1948;53.250;10.412;2023-12-20T07:40:51;7.10;99.90
3866;DHT22;1948;53.250;10.412;2023-12-20T07:43:18;7.10;99.90
3866;DHT22;1948;53.250;10.412;2023-12-20T07:45:48;7.10;99.90
3866;DHT22;1948;53.250;10.412;2023-12-20T07:48:18;7.10;99.90
3866;DHT22;1948;53.250;10.412;2023-12-20T07:50:45;7.10;99.90
3866;DHT22;1948;53.250;10.412;2023-12-20T07:53:12;7.10;99.90
3866;DHT22;1948;53.250;10.412;2023-12-20T07:55:39;7.10;99.90
3866;DHT22;1948;53.250;10.412;2023-12-20T07:58:06;7.00;99.90
3866;DHT22;1948;53.250;10.412;2023-12-20T08:00:33;7.00;99.90
3866;DHT22;1948;53.250;10.412;2023-12-20T08:03:00;7.10;99.90
3866;DHT22;1948;53.250;10.412;2023-12-20T08:05:32;7.10;99.90
3866;DHT22;1948;53.250;10.412;2023-12-20T08:08:02;7.00;99.90
3866;DHT22;1948;53.250;10.412;2023-12-20T08:10:29;7.00;99.90
3866;DHT22;1948;53.250;10.412;2023-12-20T08:12:56;7.10;99.90
3866;DHT22;1948;53.250;10.412;2023-12-20T08:15:23;7.10;99.90
3866;DHT22;1948;53.250;10.412;2023-12-20T08:17:51;7.10;99.90
3866;DHT22;1948;53.250;10.412;2023-12-20T08:20:18;7.10;99.90
3866;DHT22;1948;53.250;10.412;2023-12-20T08:22:52;7.20;99.90
3866;DHT22;1948;53.250;10.412;2023-12-20T08:25:19;7.20;99.90
3866;DHT22;1948;53.250;10.412;2023-12-20T08:27:46;7.10;99.90
3866;DHT22;1948;53.250;10.412;2023-12-20T08:30:17;7.20;99.90
3866;DHT22;1948;53.250;10.412;2023-12-20T08:32:49;7.20;99.90
3866;DHT22;1948;53.250;10.412;2023-12-20T08:35:19;7.20;99.90
3866;DHT22;1948;53.250;10.412;2023-12-20T08:37:47;7.20;99.90
3866;DHT22;1948;53.250;10.412;2023-12-20T08:40:14;7.20;99.90
3866;DHT22;1948;53.250;10.412;2023-12-20T08:42:43;7.10;99.90
3866;DHT22;1948;53.250;10.412;2023-12-20T08:45:10;7.10;99.90
3866;DHT22;1948;53.250;10.412;2023-12-20T08:47:37;7.10;99.90
3866;DHT22;1948;53.250;10.412;2023-12-20T08:50:05;7.20;99.90
3866;DHT22;1948;53.250;10.412;2023-12-20T08:52:35;7.20;99.90
3866;DHT22;1948;53.250;10.412;2023-12-20T08:55:02;7.20;99.90
3866;DHT22;1948;53.250;10.412;2023-12-20T08:57:30;7.30;99.90
3866;DHT22;1948;53.250;10.412;2023-12-20T08:59:58;7.30;99.90
3866;DHT22;1948;53.250;10.412;2023-12-20T09:02:28;7.30;99.90
3866;DHT22;1948;53.250;10.412;2023-12-20T09:04:56;7.40;99.90
3866;DHT22;1948;53.250;10.412;2023-12-20T09:07:23;7.40;99.90
3866;DHT22;1948;53.250;10.412;2023-12-20T09:09:52;7.40;99.90
3866;DHT22;1948;53.250;10.412;2023-12-20T09:12:24;7.50;99.90
3866;DHT22;1948;53.250;10.412;2023-12-20T09:14:51;7.50;99.90
3866;DHT22;1948;53.250;10.412;2023-12-20T09:17:19;7.70;99.90
3866;DHT22;1948;53.250;10.412;2023-12-20T09:19:49;7.60;99.90
3866;DHT22;1948;53.250;10.412;2023-12-20T09:22:19;7.50;99.90
3866;DHT22;1948;53.250;10.412;2023-12-20T09:24:48;7.50;99.90
3866;DHT22;1948;53.250;10.412;2023-12-20T09:27:18;7.50;99.90
3866;DHT22;1948;53.250;10.412;2023-12-20T09:29:45;7.40;99.90
3866;DHT22;1948;53.250;10.412;2023-12-20T09:32:12;7.40;99.90
3866;DHT22;1948;53.250;10.412;2023-12-20T09:34:44;7.30;99.90
3866;DHT22;1948;53.250;10.412;2023-12-20T09:37:11;7.30;99.90
3866;DHT22;1948;53.250;10.412;2023-12-20T09:39:40;7.30;99.90
3866;DHT22;1948;53.250;10.412;2023-12-20T09:42:08;7.40;99.90
3866;DHT22;1948;53.250;10.412;2023-12-20T09:44:38;7.40;99.90
3866;DHT22;1948;53.250;10.412;2023-12-20T09:47:14;7.30;99.90
3866;DHT22;1948;53.250;10.412;2023-12-20T09:49:43;7.40;99.90
3866;DHT22;1948;53.250;10.412;2023-12-20T09:52:11;7.40;99.90
3866;DHT22;1948;53.250;10.412;2023-12-20T09:54:42;7.40;99.90
3866;DHT22;1948;53.250;10.412;2023-12-20T09:57:12;7.50;99.90
3866;DHT22;1948;53.250;10.412;2023-12-20T09:59:40;7.50;99.90
3866;DHT22;1948;53.250;10.412;2023-12-20T10:02:14;7.50;99.90
3866;DHT22;1948;53.250;10.412;2023-12-20T10:04:47;7.50;99.90
3866;DHT22;1948;53.250;10.412;2023-12-20T10:07:18;7.60;99.90
3866;DHT22;1948;53.250;10.412;2023-12-20T10:09:48;7.50;99.90
3866;DHT22;1948;53.250;10.412;2023-12-20T10:12:22;7.30;99.90
3866;DHT22;1948;53.250;10.412;2023-12-20T10:14:50;7.20;99.90
3866;DHT22;1948;53.250;10.412;2023-12-20T10:17:17;7.10;99.90
3866;DHT22;1948;53.250;10.412;2023-12-20T10:19:46;7.10;99.90
3866;DHT22;1948;53.250;10.412;2023-12-20T10:22:13;7.20;99.90
3866;DHT22;1948;53.250;10.412;2023-12-20T10:24:42;7.10;99.90
3866;DHT22;1948;53.250;10.412;2023-12-20T10:27:10;7.10;99.90
3866;DHT22;1948;53.250;10.412;2023-12-20T10:29:38;7.20;99.90
3866;DHT22;1948;53.250;10.412;2023-12-20T10:32:22;7.20;99.90
3866;DHT22;1948;53.250;10.412;2023-12-20T10:34:53;7.30;99.90
3866;DHT22;1948;53.250;10.412;2023-12-20T10:37:21;7.20;99.90
3866;DHT22;1948;53.250;10.412;2023-12-20T10:39:54;7.20;99.90
3866;DHT22;1948;53.250;10.412;2023-12-20T10:42:26;7.30;99.90
3866;DHT22;1948;53.250;10.412;2023-12-20T10:44:56;7.30;99.90
3866;DHT22;1948;53.250;10.412;2023-12-20T10:47:30;7.30;99.90
3866;DHT22;1948;53.250;10.412;2023-12-20T10:49:59;7.40;99.90
3866;DHT22;1948;53.250;10.412;2023-12-20T10:52:34;7.30;99.90
3866;DHT22;1948;53.250;10.412;2023-12-20T10:55:07;7.40;99.90
3866;DHT22;1948;53.250;10.412;2023-12-20T10:57:36;7.50;99.90
3866;DHT22;1948;53.250;10.412;2023-12-20T11:00:03;7.80;99.90
3866;DHT22;1948;53.250;10.412;2023-12-20T11:02:39;7.90;99.90
3866;DHT22;1948;53.250;10.412;2023-12-20T11:08:43;8.40;99.90
3866;DHT22;1948;53.250;10.412;2023-12-20T11:11:37;8.30;99.90
3866;DHT22;1948;53.250;10.412;2023-12-20T11:14:20;8.10;99.90
3866;DHT22;1948;53.250;10.412;2023-12-20T11:16:58;7.90;99.90
3866;DHT22;1948;53.250;10.412;2023-12-20T11:22:29;7.80;99.90
3866;DHT22;1948;53.250;10.412;2023-12-20T11:25:09;7.80;99.90
3866;DHT22;1948;53.250;10.412;2023-12-20T11:27:41;7.80;99.90
3866;DHT22;1948;53.250;10.412;2023-12-20T11:30:15;7.70;99.90
3866;DHT22;1948;53.250;10.412;2023-12-20T11:32:46;7.70;99.90
3866;DHT22;1948;53.250;10.412;2023-12-20T11:37:43;7.50;99.90
3866;DHT22;1948;53.250;10.412;2023-12-20T11:40:16;7.40;99.90
3866;DHT22;1948;53.250;10.412;2023-12-20T11:42:45;7.40;99.90
3866;DHT22;1948;53.250;10.412;2023-12-20T11:45:21;7.30;99.90
3866;DHT22;1948;53.250;10.412;2023-12-20T11:47:59;7.40;99.90
3866;DHT22;1948;53.250;10.412;2023-12-20T11:50:28;7.40;99.90
3866;DHT22;1948;53.250;10.412;2023-12-20T11:52:57;7.40;99.90
3866;DHT22;1948;53.250;10.412;2023-12-20T11:55:27;7.50;99.90
3866;DHT22;1948;53.250;10.412;2023-12-20T11:57:54;7.50;99.90
3866;DHT22;1948;53.250;10.412;2023-12-20T12:00:24;7.80;99.90
3866;DHT22;1948;53.250;10.412;2023-12-20T12:03:00;8.20;99.90
3866;DHT22;1948;53.250;10.412;2023-12-20T12:05:30;8.60;99.90
3866;DHT22;1948;53.250;10.412;2023-12-20T12:08:03;8.80;99.90
3866;DHT22;1948;53.250;10.412;2023-12-20T12:10:37;9.40;99.90
3866;DHT22;1948;53.250;10.412;2023-12-20T12:13:07;9.80;99.90
3866;DHT22;1948;53.250;10.412;2023-12-20T12:15:34;9.80;99.90
3866;DHT22;1948;53.250;10.412;2023-12-20T12:18:01;9.80;99.90
3866;DHT22;1948;53.250;10.412;2023-12-20T12:20:29;9.70;99.90
3866;DHT22;1948;53.250;10.412;2023-12-20T12:23:06;9.50;99.90
3866;DHT22;1948;53.250;10.412;2023-12-20T12:25:37;9.20;99.90
3866;DHT22;1948;53.250;10.412;2023-12-20T12:28:09;9.00;99.90
3866;DHT22;1948;53.250;10.412;2023-12-20T12:30:40;9.00;99.90
3866;DHT22;1948;53.250;10.412;2023-12-20T12:33:21;9.00;99.90
3866;DHT22;1948;53.250;10.412;2023-12-20T12:35:51;8.90;99.90
3866;DHT22;1948;53.250;10.412;2023-12-20T12:38:21;8.70;99.90
3866;DHT22;1948;53.250;10.412;2023-12-20T12:40:50;8.80;99.90
3866;DHT22;1948;53.250;10.412;2023-12-20T12:43:17;8.80;99.90
3866;DHT22;1948;53.250;10.412;2023-12-20T12:45:44;8.80;99.90
3866;DHT22;1948;53.250;10.412;2023-12-20T12:48:12;8.80;99.90
3866;DHT22;1948;53.250;10.412;2023-12-20T12:50:41;8.70;99.90
3866;DHT22;1948;53.250;10.412;2023-12-20T12:53:11;8.80;99.90
3866;DHT22;1948;53.250;10.412;2023-12-20T12:55:41;8.80;99.90
3866;DHT22;1948;53.250;10.412;2023-12-20T12:58:08;8.60;99.90
3866;DHT22;1948;53.250;10.412;2023-12-20T13:00:38;8.60;99.90
3866;DHT22;1948;53.250;10.412;2023-12-20T13:03:11;8.50;99.90
3866;DHT22;1948;53.250;10.412;2023-12-20T13:05:42;8.40;99.90
3866;DHT22;1948;53.250;10.412;2023-12-20T13:08:22;8.40;99.90
3866;DHT22;1948;53.250;10.412;2023-12-20T13:10:49;9.80;99.90
3866;DHT22;1948;53.250;10.412;2023-12-20T13:13:17;11.30;99.90
3866;DHT22;1948;53.250;10.412;2023-12-20T13:15:44;12.50;99.90
3866;DHT22;1948;53.250;10.412;2023-12-20T13:18:18;13.00;99.90
3866;DHT22;1948;53.250;10.412;2023-12-20T13:20:46;13.90;99.90
3866;DHT22;1948;53.250;10.412;2023-12-20T13:23:13;14.20;99.90
3866;DHT22;1948;53.250;10.412;2023-12-20T13:25:41;14.70;99.90
3866;DHT22;1948;53.250;10.412;2023-12-20T13:28:08;15.20;99.90
3866;DHT22;1948;53.250;10.412;2023-12-20T13:30:36;15.10;99.90
3866;DHT22;1948;53.250;10.412;2023-12-20T13:33:08;15.00;99.90
3866;DHT22;1948;53.250;10.412;2023-12-20T13:35:35;14.50;99.90
3866;DHT22;1948;53.250;10.412;2023-12-20T13:38:05;13.50;99.90
3866;DHT22;1948;53.250;10.412;2023-12-20T13:40:33;12.40;99.90
3866;DHT22;1948;53.250;10.412;2023-12-20T13:43:02;11.50;99.90
3866;DHT22;1948;53.250;10.412;2023-12-20T13:45:30;10.90;99.90
3866;DHT22;1948;53.250;10.412;2023-12-20T13:47:59;10.40;99.90
3866;DHT22;1948;53.250;10.412;2023-12-20T13:50:29;9.90;99.90
3866;DHT22;1948;53.250;10.412;2023-12-20T13:52:58;9.50;99.90
3866;DHT22;1948;53.250;10.412;2023-12-20T13:55:25;9.10;99.90
3866;DHT22;1948;53.250;10.412;2023-12-20T13:57:54;9.00;99.90
3866;DHT22;1948;53.250;10.412;2023-12-20T14:00:24;8.90;99.90
3866;DHT22;1948;53.250;10.412;2023-12-20T14:02:51;8.60;99.90
3866;DHT22;1948;53.250;10.412;2023-12-20T14:05:19;8.50;99.90
3866;DHT22;1948;53.250;10.412;2023-12-20T14:07:49;8.40;99.90
3866;DHT22;1948;53.250;10.412;2023-12-20T14:10:16;8.20;99.90
3866;DHT22;1948;53.250;10.412;2023-12-20T14:12:43;8.10;99.90
3866;DHT22;1948;53.250;10.412;2023-12-20T14:15:13;8.00;99.90
3866;DHT22;1948;53.250;10.412;2023-12-20T14:17:41;7.90;99.90
3866;DHT22;1948;53.250;10.412;2023-12-20T14:20:14;7.80;99.90
3866;DHT22;1948;53.250;10.412;2023-12-20T14:22:41;7.80;99.90
3866;DHT22;1948;53.250;10.412;2023-12-20T14:25:12;7.80;99.90
3866;DHT22;1948;53.250;10.412;2023-12-20T14:27:41;7.80;99.90
3866;DHT22;1948;53.250;10.412;2023-12-20T14:30:12;7.80;99.90
3866;DHT22;1948;53.250;10.412;2023-12-20T14:32:41;7.70;99.90
3866;DHT22;1948;53.250;10.412;2023-12-20T14:35:11;7.60;99.90
3866;DHT22;1948;53.250;10.412;2023-12-20T14:37:42;7.60;99.90
3866;DHT22;1948;53.250;10.412;2023-12-20T14:40:10;7.60;99.90
3866;DHT22;1948;53.250;10.412;2023-12-20T14:42:46;7.50;99.90
3866;DHT22;1948;53.250;10.412;2023-12-20T14:45:14;7.40;99.90
3866;DHT22;1948;53.250;10.412;2023-12-20T14:47:43;7.40;99.90
3866;DHT22;1948;53.250;10.412;2023-12-20T14:50:11;7.40;99.90
3866;DHT22;1948;53.250;10.412;2023-12-20T14:52:44;7.30;99.90
3866;DHT22;1948;53.250;10.412;2023-12-20T14:55:15;7.30;99.90
3866;DHT22;1948;53.250;10.412;2023-12-20T14:57:42;7.30;99.90
3866;DHT22;1948;53.250;10.412;2023-12-20T15:00:10;7.20;99.90
3866;DHT22;1948;53.250;10.412;2023-12-20T15:02:43;7.10;99.90
3866;DHT22;1948;53.250;10.412;2023-12-20T15:05:10;7.10;99.90
3866;DHT22;1948;53.250;10.412;2023-12-20T15:07:37;7.10;99.90
3866;DHT22;1948;53.250;10.412;2023-12-20T15:10:04;7.00;99.90
3866;DHT22;1948;53.250;10.412;2023-12-20T15:12:32;7.00;99.90
3866;DHT22;1948;53.250;10.412;2023-12-20T15:15:00;7.10;99.90
3866;DHT22;1948;53.250;10.412;2023-12-20T15:17:31;7.00;99.90
3866;DHT22;1948;53.250;10.412;2023-12-20T15:19:58;7.00;99.90
3866;DHT22;1948;53.250;10.412;2023-12-20T15:22:25;6.90;99.90
3866;DHT22;1948;53.250;10.412;2023-12-20T15:24:55;6.90;99.90
3866;DHT22;1948;53.250;10.412;2023-12-20T15:27:22;7.00;99.90
3866;DHT22;1948;53.250;10.412;2023-12-20T15:29:51;7.00;99.90
3866;DHT22;1948;53.250;10.412;2023-12-20T15:32:25;7.00;99.90
3866;DHT22;1948;53.250;10.412;2023-12-20T15:34:54;7.00;99.90
3866;DHT22;1948;53.250;10.412;2023-12-20T15:37:22;7.00;99.90
3866;DHT22;1948;53.250;10.412;2023-12-20T15:39:56;7.00;99.90
3866;DHT22;1948;53.250;10.412;2023-12-20T15:42:23;7.00;99.90
3866;DHT22;1948;53.250;10.412;2023-12-20T15:44:50;7.00;99.90
3866;DHT22;1948;53.250;10.412;2023-12-20T15:47:17;7.00;99.90
3866;DHT22;1948;53.250;10.412;2023-12-20T15:49:44;7.00;99.90
3866;DHT22;1948;53.250;10.412;2023-12-20T15:52:16;7.00;99.90
3866;DHT22;1948;53.250;10.412;2023-12-20T15:54:43;7.00;99.90
3866;DHT22;1948;53.250;10.412;2023-12-20T15:57:10;7.00;99.90
3866;DHT22;1948;53.250;10.412;2023-12-20T15:59:38;6.90;99.90
3866;DHT22;1948;53.250;10.412;2023-12-20T16:02:05;6.90;99.90
3866;DHT22;1948;53.250;10.412;2023-12-20T16:04:32;6.80;99.90
3866;DHT22;1948;53.250;10.412;2023-12-20T16:07:02;6.80;99.90
3866;DHT22;1948;53.250;10.412;2023-12-20T16:09:30;6.80;99.90
3866;DHT22;1948;53.250;10.412;2023-12-20T16:11:59;6.80;99.90
3866;DHT22;1948;53.250;10.412;2023-12-20T16:14:26;6.70;99.90
3866;DHT22;1948;53.250;10.412;2023-12-20T16:16:56;6.70;99.90
3866;DHT22;1948;53.250;10.412;2023-12-20T16:19:26;6.70;99.90
3866;DHT22;1948;53.250;10.412;2023-12-20T16:21:56;6.70;99.90
3866;DHT22;1948;53.250;10.412;2023-12-20T16:24:28;6.60;99.90
3866;DHT22;1948;53.250;10.412;2023-12-20T16:26:57;6.60;99.90